sensor_id;sensor_type;location;lat;lon;timestamp;P1;durP1;ratioP1;P2;durP2;ratioP2
72125;SDS011;59999;51.676;22.650;2023-09-07T00:01:49;24.87;;;16.33;;
72125;SDS011;59999;51.676;22.650;2023-09-07T00:04:21;23.92;;;14.45;;
72125;SDS011;59999;51.676;22.650;2023-09-07T00:06:48;31.42;;;17.98;;
72125;SDS011;59999;51.676;22.650;2023-09-07T00:09:15;29.45;;;17.52;;
72125;SDS011;59999;51.676;22.650;2023-09-07T00:11:44;30.70;;;17.10;;
72125;SDS011;59999;51.676;22.650;2023-09-07T00:14:11;31.67;;;17.63;;
72125;SDS011;59999;51.676;22.650;2023-09-07T00:16:36;27.73;;;16.45;;
72125;SDS011;59999;51.676;22.650;2023-09-07T00:19:04;29.17;;;17.50;;
72125;SDS011;59999;51.676;22.650;2023-09-07T00:21:30;29.13;;;15.65;;
72125;SDS011;59999;51.676;22.650;2023-09-07T00:23:56;29.93;;;15.57;;
72125;SDS011;59999;51.676;22.650;2023-09-07T00:26:22;27.88;;;15.25;;
72125;SDS011;59999;51.676;22.650;2023-09-07T00:28:48;21.73;;;14.15;;
72125;SDS011;59999;51.676;22.650;2023-09-07T00:31:14;22.20;;;12.47;;
72125;SDS011;59999;51.676;22.650;2023-09-07T00:33:40;20.10;;;12.65;;
72125;SDS011;59999;51.676;22.650;2023-09-07T00:36:06;22.10;;;13.70;;
72125;SDS011;59999;51.676;22.650;2023-09-07T00:38:32;24.40;;;13.00;;
72125;SDS011;59999;51.676;22.650;2023-09-07T00:40:58;25.00;;;14.10;;
72125;SDS011;59999;51.676;22.650;2023-09-07T00:43:24;27.08;;;14.85;;
72125;SDS011;59999;51.676;22.650;2023-09-07T00:45:50;25.77;;;15.97;;
72125;SDS011;59999;51.676;22.650;2023-09-07T00:48:16;26.70;;;16.40;;
72125;SDS011;59999;51.676;22.650;2023-09-07T00:50:42;28.92;;;17.40;;
72125;SDS011;59999;51.676;22.650;2023-09-07T00:53:10;26.85;;;16.42;;
72125;SDS011;59999;51.676;22.650;2023-09-07T00:55:36;27.48;;;15.70;;
72125;SDS011;59999;51.676;22.650;2023-09-07T00:58:03;24.17;;;14.33;;
72125;SDS011;59999;51.676;22.650;2023-09-07T01:00:30;16.98;;;10.93;;
72125;SDS011;59999;51.676;22.650;2023-09-07T01:02:56;20.02;;;11.75;;
72125;SDS011;59999;51.676;22.650;2023-09-07T01:05:23;19.92;;;12.38;;
72125;SDS011;59999;51.676;22.650;2023-09-07T01:07:57;23.02;;;14.15;;
72125;SDS011;59999;51.676;22.650;2023-09-07T01:10:28;24.97;;;14.53;;
72125;SDS011;59999;51.676;22.650;2023-09-07T01:12:54;22.48;;;14.02;;
72125;SDS011;59999;51.676;22.650;2023-09-07T01:15:20;20.02;;;12.73;;
72125;SDS011;59999;51.676;22.650;2023-09-07T01:17:46;23.13;;;13.60;;
72125;SDS011;59999;51.676;22.650;2023-09-07T01:20:12;24.45;;;13.75;;
72125;SDS011;59999;51.676;22.650;2023-09-07T01:22:42;20.60;;;13.40;;
72125;SDS011;59999;51.676;22.650;2023-09-07T01:25:08;21.08;;;13.10;;
72125;SDS011;59999;51.676;22.650;2023-09-07T01:27:35;22.15;;;13.20;;
72125;SDS011;59999;51.676;22.650;2023-09-07T01:30:01;18.93;;;11.57;;
72125;SDS011;59999;51.676;22.650;2023-09-07T01:32:28;18.42;;;12.07;;
72125;SDS011;59999;51.676;22.650;2023-09-07T01:34:55;21.77;;;11.38;;
72125;SDS011;59999;51.676;22.650;2023-09-07T01:37:23;21.90;;;13.00;;
72125;SDS011;59999;51.676;22.650;2023-09-07T01:39:49;22.77;;;13.70;;
72125;SDS011;59999;51.676;22.650;2023-09-07T01:42:15;23.30;;;13.60;;
72125;SDS011;59999;51.676;22.650;2023-09-07T01:44:41;26.02;;;14.13;;
72125;SDS011;59999;51.676;22.650;2023-09-07T01:47:08;25.00;;;15.40;;
72125;SDS011;59999;51.676;22.650;2023-09-07T01:49:34;26.38;;;15.85;;
72125;SDS011;59999;51.676;22.650;2023-09-07T01:52:01;29.98;;;16.80;;
72125;SDS011;59999;51.676;22.650;2023-09-07T01:54:27;31.27;;;16.58;;
72125;SDS011;59999;51.676;22.650;2023-09-07T01:56:53;26.63;;;16.73;;
72125;SDS011;59999;51.676;22.650;2023-09-07T01:59:19;29.75;;;17.10;;
72125;SDS011;59999;51.676;22.650;2023-09-07T02:01:45;31.90;;;17.85;;
72125;SDS011;59999;51.676;22.650;2023-09-07T02:04:10;28.67;;;16.93;;
72125;SDS011;59999;51.676;22.650;2023-09-07T02:06:37;31.00;;;16.50;;
72125;SDS011;59999;51.676;22.650;2023-09-07T02:09:02;27.35;;;15.75;;
72125;SDS011;59999;51.676;22.650;2023-09-07T02:11:29;24.63;;;14.37;;
72125;SDS011;59999;51.676;22.650;2023-09-07T02:13:55;30.17;;;16.02;;
72125;SDS011;59999;51.676;22.650;2023-09-07T02:16:21;27.60;;;14.60;;
72125;SDS011;59999;51.676;22.650;2023-09-07T02:18:48;26.47;;;13.93;;
72125;SDS011;59999;51.676;22.650;2023-09-07T02:21:15;24.20;;;13.88;;
72125;SDS011;59999;51.676;22.650;2023-09-07T02:23:41;26.58;;;15.00;;
72125;SDS011;59999;51.676;22.650;2023-09-07T02:26:07;23.80;;;14.23;;
72125;SDS011;59999;51.676;22.650;2023-09-07T02:28:33;24.03;;;13.73;;
72125;SDS011;59999;51.676;22.650;2023-09-07T02:31:02;23.30;;;13.93;;
72125;SDS011;59999;51.676;22.650;2023-09-07T02:33:29;21.90;;;13.13;;
72125;SDS011;59999;51.676;22.650;2023-09-07T02:35:56;20.20;;;12.37;;
72125;SDS011;59999;51.676;22.650;2023-09-07T02:38:22;20.17;;;12.70;;
72125;SDS011;59999;51.676;22.650;2023-09-07T02:40:48;21.48;;;12.38;;
72125;SDS011;59999;51.676;22.650;2023-09-07T02:43:14;20.67;;;12.55;;
72125;SDS011;59999;51.676;22.650;2023-09-07T02:45:42;21.47;;;12.90;;
72125;SDS011;59999;51.676;22.650;2023-09-07T02:48:07;20.55;;;12.77;;
72125;SDS011;59999;51.676;22.650;2023-09-07T02:50:34;21.70;;;12.90;;
72125;SDS011;59999;51.676;22.650;2023-09-07T02:53:00;21.20;;;13.05;;
72125;SDS011;59999;51.676;22.650;2023-09-07T02:55:27;22.63;;;12.97;;
72125;SDS011;59999;51.676;22.650;2023-09-07T02:57:53;25.58;;;13.60;;
72125;SDS011;59999;51.676;22.650;2023-09-07T03:00:21;24.73;;;13.98;;
72125;SDS011;59999;51.676;22.650;2023-09-07T03:02:47;27.58;;;14.20;;
72125;SDS011;59999;51.676;22.650;2023-09-07T03:05:14;24.33;;;14.00;;
72125;SDS011;59999;51.676;22.650;2023-09-07T03:07:41;23.17;;;13.93;;
72125;SDS011;59999;51.676;22.650;2023-09-07T03:10:07;22.98;;;13.70;;
72125;SDS011;59999;51.676;22.650;2023-09-07T03:12:33;19.58;;;11.35;;
72125;SDS011;59999;51.676;22.650;2023-09-07T03:14:59;20.05;;;12.07;;
72125;SDS011;59999;51.676;22.650;2023-09-07T03:17:29;22.48;;;12.90;;
72125;SDS011;59999;51.676;22.650;2023-09-07T03:19:55;24.70;;;14.07;;
72125;SDS011;59999;51.676;22.650;2023-09-07T03:22:22;28.17;;;14.57;;
72125;SDS011;59999;51.676;22.650;2023-09-07T03:24:52;25.23;;;14.82;;
72125;SDS011;59999;51.676;22.650;2023-09-07T03:27:17;29.25;;;16.23;;
72125;SDS011;59999;51.676;22.650;2023-09-07T03:29:44;26.47;;;15.37;;
72125;SDS011;59999;51.676;22.650;2023-09-07T03:32:10;29.20;;;14.73;;
72125;SDS011;59999;51.676;22.650;2023-09-07T03:34:36;21.67;;;13.57;;
72125;SDS011;59999;51.676;22.650;2023-09-07T03:37:02;28.17;;;14.10;;
72125;SDS011;59999;51.676;22.650;2023-09-07T03:39:32;25.50;;;14.57;;
72125;SDS011;59999;51.676;22.650;2023-09-07T03:41:58;22.23;;;13.00;;
72125;SDS011;59999;51.676;22.650;2023-09-07T03:44:24;23.05;;;13.45;;
72125;SDS011;59999;51.676;22.650;2023-09-07T03:46:50;23.25;;;13.48;;
72125;SDS011;59999;51.676;22.650;2023-09-07T03:49:16;24.57;;;13.77;;
72125;SDS011;59999;51.676;22.650;2023-09-07T03:51:42;23.33;;;13.18;;
72125;SDS011;59999;51.676;22.650;2023-09-07T03:54:08;25.77;;;13.98;;
72125;SDS011;59999;51.676;22.650;2023-09-07T03:56:33;25.00;;;13.50;;
72125;SDS011;59999;51.676;22.650;2023-09-07T03:59:00;27.42;;;14.35;;
72125;SDS011;59999;51.676;22.650;2023-09-07T04:01:25;28.47;;;13.93;;
72125;SDS011;59999;51.676;22.650;2023-09-07T04:03:51;23.23;;;14.87;;
72125;SDS011;59999;51.676;22.650;2023-09-07T04:06:17;24.42;;;14.18;;
72125;SDS011;59999;51.676;22.650;2023-09-07T04:08:43;25.02;;;14.23;;
72125;SDS011;59999;51.676;22.650;2023-09-07T04:11:09;24.70;;;13.50;;
72125;SDS011;59999;51.676;22.650;2023-09-07T04:13:35;26.35;;;14.80;;
72125;SDS011;59999;51.676;22.650;2023-09-07T04:16:01;27.07;;;15.50;;
72125;SDS011;59999;51.676;22.650;2023-09-07T04:18:27;27.42;;;14.98;;
72125;SDS011;59999;51.676;22.650;2023-09-07T04:20:53;28.05;;;14.93;;
72125;SDS011;59999;51.676;22.650;2023-09-07T04:23:19;26.13;;;15.27;;
72125;SDS011;59999;51.676;22.650;2023-09-07T04:25:44;31.77;;;15.73;;
72125;SDS011;59999;51.676;22.650;2023-09-07T04:28:10;28.33;;;16.08;;
72125;SDS011;59999;51.676;22.650;2023-09-07T04:30:39;29.83;;;15.70;;
72125;SDS011;59999;51.676;22.650;2023-09-07T04:33:07;30.08;;;15.82;;
72125;SDS011;59999;51.676;22.650;2023-09-07T04:35:33;28.42;;;15.93;;
72125;SDS011;59999;51.676;22.650;2023-09-07T04:37:59;31.15;;;16.60;;
72125;SDS011;59999;51.676;22.650;2023-09-07T04:40:25;32.23;;;16.63;;
72125;SDS011;59999;51.676;22.650;2023-09-07T04:42:51;29.50;;;15.98;;
72125;SDS011;59999;51.676;22.650;2023-09-07T04:45:17;26.75;;;15.07;;
72125;SDS011;59999;51.676;22.650;2023-09-07T04:47:43;23.83;;;14.60;;
72125;SDS011;59999;51.676;22.650;2023-09-07T04:50:09;36.17;;;15.00;;
72125;SDS011;59999;51.676;22.650;2023-09-07T04:52:36;29.73;;;13.40;;
72125;SDS011;59999;51.676;22.650;2023-09-07T04:55:02;23.98;;;13.63;;
72125;SDS011;59999;51.676;22.650;2023-09-07T04:57:30;23.73;;;13.07;;
72125;SDS011;59999;51.676;22.650;2023-09-07T04:59:56;24.67;;;13.30;;
72125;SDS011;59999;51.676;22.650;2023-09-07T05:02:22;27.67;;;13.88;;
72125;SDS011;59999;51.676;22.650;2023-09-07T05:04:48;24.02;;;13.75;;
72125;SDS011;59999;51.676;22.650;2023-09-07T05:07:14;27.40;;;14.57;;
72125;SDS011;59999;51.676;22.650;2023-09-07T05:09:39;25.93;;;15.13;;
72125;SDS011;59999;51.676;22.650;2023-09-07T05:12:05;26.98;;;15.73;;
72125;SDS011;59999;51.676;22.650;2023-09-07T05:14:31;29.85;;;15.32;;
72125;SDS011;59999;51.676;22.650;2023-09-07T05:16:57;24.73;;;15.23;;
72125;SDS011;59999;51.676;22.650;2023-09-07T05:19:23;27.30;;;15.55;;
72125;SDS011;59999;51.676;22.650;2023-09-07T05:21:49;29.75;;;15.52;;
72125;SDS011;59999;51.676;22.650;2023-09-07T05:24:15;29.47;;;16.13;;
72125;SDS011;59999;51.676;22.650;2023-09-07T05:26:41;27.73;;;15.45;;
72125;SDS011;59999;51.676;22.650;2023-09-07T05:29:07;29.27;;;16.30;;
72125;SDS011;59999;51.676;22.650;2023-09-07T05:31:34;27.02;;;15.40;;
72125;SDS011;59999;51.676;22.650;2023-09-07T05:33:59;33.73;;;16.37;;
72125;SDS011;59999;51.676;22.650;2023-09-07T05:36:26;26.73;;;14.13;;
72125;SDS011;59999;51.676;22.650;2023-09-07T05:38:52;24.10;;;14.43;;
72125;SDS011;59999;51.676;22.650;2023-09-07T05:41:18;28.05;;;15.05;;
72125;SDS011;59999;51.676;22.650;2023-09-07T05:43:44;24.70;;;15.27;;
72125;SDS011;59999;51.676;22.650;2023-09-07T05:46:11;25.38;;;14.98;;
72125;SDS011;59999;51.676;22.650;2023-09-07T05:48:36;25.05;;;15.18;;
72125;SDS011;59999;51.676;22.650;2023-09-07T05:51:03;26.02;;;15.57;;
72125;SDS011;59999;51.676;22.650;2023-09-07T05:53:29;26.90;;;15.37;;
72125;SDS011;59999;51.676;22.650;2023-09-07T05:55:55;24.48;;;14.65;;
72125;SDS011;59999;51.676;22.650;2023-09-07T05:58:20;24.35;;;14.95;;
72125;SDS011;59999;51.676;22.650;2023-09-07T06:00:47;22.13;;;13.10;;
72125;SDS011;59999;51.676;22.650;2023-09-07T06:03:13;21.35;;;12.35;;
72125;SDS011;59999;51.676;22.650;2023-09-07T06:05:39;20.92;;;11.82;;
72125;SDS011;59999;51.676;22.650;2023-09-07T06:08:05;18.25;;;11.00;;
72125;SDS011;59999;51.676;22.650;2023-09-07T06:10:34;18.43;;;10.43;;
72125;SDS011;59999;51.676;22.650;2023-09-07T06:13:00;22.10;;;10.93;;
72125;SDS011;59999;51.676;22.650;2023-09-07T06:15:26;22.48;;;10.32;;
72125;SDS011;59999;51.676;22.650;2023-09-07T06:17:52;17.17;;;10.35;;
72125;SDS011;59999;51.676;22.650;2023-09-07T06:20:19;16.67;;;10.13;;
72125;SDS011;59999;51.676;22.650;2023-09-07T06:22:45;16.87;;;10.17;;
72125;SDS011;59999;51.676;22.650;2023-09-07T06:25:12;18.55;;;10.85;;
72125;SDS011;59999;51.676;22.650;2023-09-07T06:27:37;18.27;;;10.18;;
72125;SDS011;59999;51.676;22.650;2023-09-07T06:30:05;15.40;;;9.77;;
72125;SDS011;59999;51.676;22.650;2023-09-07T06:32:31;16.52;;;10.18;;
72125;SDS011;59999;51.676;22.650;2023-09-07T06:34:58;16.65;;;9.80;;
72125;SDS011;59999;51.676;22.650;2023-09-07T06:37:24;19.83;;;10.17;;
72125;SDS011;59999;51.676;22.650;2023-09-07T06:39:50;14.85;;;9.60;;
72125;SDS011;59999;51.676;22.650;2023-09-07T06:42:16;16.48;;;9.50;;
72125;SDS011;59999;51.676;22.650;2023-09-07T06:44:42;15.45;;;9.50;;
72125;SDS011;59999;51.676;22.650;2023-09-07T06:47:08;14.70;;;9.15;;
72125;SDS011;59999;51.676;22.650;2023-09-07T06:49:34;14.40;;;9.47;;
72125;SDS011;59999;51.676;22.650;2023-09-07T06:52:00;15.52;;;9.57;;
72125;SDS011;59999;51.676;22.650;2023-09-07T06:54:27;16.23;;;9.85;;
72125;SDS011;59999;51.676;22.650;2023-09-07T06:56:54;17.35;;;9.70;;
72125;SDS011;59999;51.676;22.650;2023-09-07T06:59:20;13.97;;;9.00;;
72125;SDS011;59999;51.676;22.650;2023-09-07T07:01:45;19.33;;;9.45;;
72125;SDS011;59999;51.676;22.650;2023-09-07T07:04:12;18.73;;;9.43;;
72125;SDS011;59999;51.676;22.650;2023-09-07T07:06:37;17.20;;;9.13;;
72125;SDS011;59999;51.676;22.650;2023-09-07T07:09:03;14.18;;;8.55;;
72125;SDS011;59999;51.676;22.650;2023-09-07T07:11:30;13.48;;;8.80;;
72125;SDS011;59999;51.676;22.650;2023-09-07T07:13:56;15.65;;;8.93;;
72125;SDS011;59999;51.676;22.650;2023-09-07T07:16:22;15.53;;;9.10;;
72125;SDS011;59999;51.676;22.650;2023-09-07T07:18:48;17.80;;;9.68;;
72125;SDS011;59999;51.676;22.650;2023-09-07T07:21:14;16.37;;;9.20;;
72125;SDS011;59999;51.676;22.650;2023-09-07T07:23:41;14.25;;;9.23;;
72125;SDS011;59999;51.676;22.650;2023-09-07T07:26:07;14.75;;;8.65;;
72125;SDS011;59999;51.676;22.650;2023-09-07T07:28:34;13.02;;;8.77;;
72125;SDS011;59999;51.676;22.650;2023-09-07T07:31:06;13.73;;;8.60;;
72125;SDS011;59999;51.676;22.650;2023-09-07T07:33:34;14.97;;;8.83;;
72125;SDS011;59999;51.676;22.650;2023-09-07T07:35:59;14.55;;;9.38;;
72125;SDS011;59999;51.676;22.650;2023-09-07T07:38:25;13.73;;;7.28;;
72125;SDS011;59999;51.676;22.650;2023-09-07T07:40:51;11.93;;;7.40;;
72125;SDS011;59999;51.676;22.650;2023-09-07T07:43:18;13.73;;;8.27;;
72125;SDS011;59999;51.676;22.650;2023-09-07T07:45:44;13.73;;;8.00;;
72125;SDS011;59999;51.676;22.650;2023-09-07T07:48:10;13.88;;;7.97;;
72125;SDS011;59999;51.676;22.650;2023-09-07T07:50:37;12.83;;;7.30;;
72125;SDS011;59999;51.676;22.650;2023-09-07T07:53:07;15.88;;;8.18;;
72125;SDS011;59999;51.676;22.650;2023-09-07T07:55:36;11.35;;;7.47;;
72125;SDS011;59999;51.676;22.650;2023-09-07T07:58:06;13.13;;;8.02;;
72125;SDS011;59999;51.676;22.650;2023-09-07T08:00:34;11.20;;;7.03;;
72125;SDS011;59999;51.676;22.650;2023-09-07T08:03:02;16.15;;;7.93;;
72125;SDS011;59999;51.676;22.650;2023-09-07T08:05:29;12.07;;;7.90;;
72125;SDS011;59999;51.676;22.650;2023-09-07T08:07:56;16.42;;;7.57;;
72125;SDS011;59999;51.676;22.650;2023-09-07T08:10:21;15.73;;;7.30;;
72125;SDS011;59999;51.676;22.650;2023-09-07T08:12:47;10.00;;;6.20;;
72125;SDS011;59999;51.676;22.650;2023-09-07T08:15:13;14.55;;;6.85;;
72125;SDS011;59999;51.676;22.650;2023-09-07T08:17:40;11.65;;;6.20;;
72125;SDS011;59999;51.676;22.650;2023-09-07T08:20:06;10.05;;;6.25;;
72125;SDS011;59999;51.676;22.650;2023-09-07T08:22:33;10.57;;;5.77;;
72125;SDS011;59999;51.676;22.650;2023-09-07T08:25:01;9.93;;;6.00;;
72125;SDS011;59999;51.676;22.650;2023-09-07T08:27:28;10.35;;;6.20;;
72125;SDS011;59999;51.676;22.650;2023-09-07T08:29:53;9.40;;;5.73;;
72125;SDS011;59999;51.676;22.650;2023-09-07T08:32:19;13.45;;;6.18;;
72125;SDS011;59999;51.676;22.650;2023-09-07T08:34:46;10.75;;;6.65;;
72125;SDS011;59999;51.676;22.650;2023-09-07T08:37:12;13.63;;;6.43;;
72125;SDS011;59999;51.676;22.650;2023-09-07T08:39:38;12.53;;;6.60;;
72125;SDS011;59999;51.676;22.650;2023-09-07T08:42:07;15.02;;;6.63;;
72125;SDS011;59999;51.676;22.650;2023-09-07T08:44:33;11.00;;;6.35;;
72125;SDS011;59999;51.676;22.650;2023-09-07T08:47:02;10.93;;;6.45;;
72125;SDS011;59999;51.676;22.650;2023-09-07T08:49:30;10.18;;;5.53;;
72125;SDS011;59999;51.676;22.650;2023-09-07T08:51:58;10.87;;;6.27;;
72125;SDS011;59999;51.676;22.650;2023-09-07T08:54:25;10.10;;;6.30;;
72125;SDS011;59999;51.676;22.650;2023-09-07T08:56:52;10.43;;;6.60;;
72125;SDS011;59999;51.676;22.650;2023-09-07T08:59:18;10.48;;;6.10;;
72125;SDS011;59999;51.676;22.650;2023-09-07T09:01:44;9.43;;;5.68;;
72125;SDS011;59999;51.676;22.650;2023-09-07T09:04:10;11.20;;;6.80;;
72125;SDS011;59999;51.676;22.650;2023-09-07T09:06:36;10.38;;;5.97;;
72125;SDS011;59999;51.676;22.650;2023-09-07T09:09:01;13.93;;;5.53;;
72125;SDS011;59999;51.676;22.650;2023-09-07T09:11:30;10.65;;;5.05;;
72125;SDS011;59999;51.676;22.650;2023-09-07T09:13:56;9.43;;;5.35;;
72125;SDS011;59999;51.676;22.650;2023-09-07T09:16:22;9.75;;;4.75;;
72125;SDS011;59999;51.676;22.650;2023-09-07T09:18:49;8.17;;;4.60;;
72125;SDS011;59999;51.676;22.650;2023-09-07T09:21:22;8.48;;;4.80;;
72125;SDS011;59999;51.676;22.650;2023-09-07T09:23:50;11.13;;;5.00;;
72125;SDS011;59999;51.676;22.650;2023-09-07T09:26:17;8.45;;;4.82;;
72125;SDS011;59999;51.676;22.650;2023-09-07T09:28:44;9.68;;;4.80;;
72125;SDS011;59999;51.676;22.650;2023-09-07T09:31:11;9.13;;;4.00;;
72125;SDS011;59999;51.676;22.650;2023-09-07T09:33:38;7.43;;;4.80;;
72125;SDS011;59999;51.676;22.650;2023-09-07T09:36:05;7.55;;;4.80;;
72125;SDS011;59999;51.676;22.650;2023-09-07T09:38:33;8.98;;;5.03;;
72125;SDS011;59999;51.676;22.650;2023-09-07T09:41:00;8.55;;;4.75;;
72125;SDS011;59999;51.676;22.650;2023-09-07T09:43:26;9.00;;;5.00;;
72125;SDS011;59999;51.676;22.650;2023-09-07T09:45:52;8.82;;;4.72;;
72125;SDS011;59999;51.676;22.650;2023-09-07T09:48:19;8.52;;;5.22;;
72125;SDS011;59999;51.676;22.650;2023-09-07T09:50:48;8.20;;;4.57;;
72125;SDS011;59999;51.676;22.650;2023-09-07T09:53:15;9.68;;;4.85;;
72125;SDS011;59999;51.676;22.650;2023-09-07T09:55:45;9.13;;;4.10;;
72125;SDS011;59999;51.676;22.650;2023-09-07T09:58:14;8.15;;;4.38;;
72125;SDS011;59999;51.676;22.650;2023-09-07T10:00:42;7.38;;;4.13;;
72125;SDS011;59999;51.676;22.650;2023-09-07T10:03:10;9.32;;;3.97;;
72125;SDS011;59999;51.676;22.650;2023-09-07T10:05:49;7.30;;;4.30;;
72125;SDS011;59999;51.676;22.650;2023-09-07T10:08:17;10.80;;;5.20;;
72125;SDS011;59999;51.676;22.650;2023-09-07T10:10:48;8.75;;;4.82;;
72125;SDS011;59999;51.676;22.650;2023-09-07T10:13:28;8.40;;;4.63;;
72125;SDS011;59999;51.676;22.650;2023-09-07T10:15:59;10.20;;;4.40;;
72125;SDS011;59999;51.676;22.650;2023-09-07T10:18:32;6.88;;;4.07;;
72125;SDS011;59999;51.676;22.650;2023-09-07T10:21:00;9.03;;;4.47;;
72125;SDS011;59999;51.676;22.650;2023-09-07T10:23:38;7.15;;;4.20;;
72125;SDS011;59999;51.676;22.650;2023-09-07T10:28:37;8.68;;;4.50;;
72125;SDS011;59999;51.676;22.650;2023-09-07T10:31:04;7.35;;;4.15;;
72125;SDS011;59999;51.676;22.650;2023-09-07T10:33:34;9.10;;;4.33;;
72125;SDS011;59999;51.676;22.650;2023-09-07T10:36:03;8.15;;;4.20;;
72125;SDS011;59999;51.676;22.650;2023-09-07T10:38:31;7.10;;;3.90;;
72125;SDS011;59999;51.676;22.650;2023-09-07T10:40:58;8.00;;;3.83;;
72125;SDS011;59999;51.676;22.650;2023-09-07T10:43:25;6.88;;;3.95;;
72125;SDS011;59999;51.676;22.650;2023-09-07T10:45:55;8.30;;;4.53;;
72125;SDS011;59999;51.676;22.650;2023-09-07T10:48:26;8.68;;;4.68;;
72125;SDS011;59999;51.676;22.650;2023-09-07T10:50:54;8.38;;;4.22;;
72125;SDS011;59999;51.676;22.650;2023-09-07T10:53:24;9.75;;;4.80;;
72125;SDS011;59999;51.676;22.650;2023-09-07T10:55:57;6.97;;;3.97;;
72125;SDS011;59999;51.676;22.650;2023-09-07T10:58:33;6.43;;;3.80;;
72125;SDS011;59999;51.676;22.650;2023-09-07T11:01:01;6.13;;;3.70;;
72125;SDS011;59999;51.676;22.650;2023-09-07T11:03:31;7.22;;;3.70;;
72125;SDS011;59999;51.676;22.650;2023-09-07T11:06:01;6.00;;;3.55;;
72125;SDS011;59999;51.676;22.650;2023-09-07T11:08:31;5.95;;;3.50;;
72125;SDS011;59999;51.676;22.650;2023-09-07T11:11:01;6.60;;;3.90;;
72125;SDS011;59999;51.676;22.650;2023-09-07T11:13:28;6.78;;;3.90;;
72125;SDS011;59999;51.676;22.650;2023-09-07T11:15:55;6.82;;;3.95;;
72125;SDS011;59999;51.676;22.650;2023-09-07T11:18:23;8.55;;;3.80;;
72125;SDS011;59999;51.676;22.650;2023-09-07T11:20:51;7.87;;;3.60;;
72125;SDS011;59999;51.676;22.650;2023-09-07T11:23:18;8.52;;;3.72;;
72125;SDS011;59999;51.676;22.650;2023-09-07T11:25:48;6.90;;;3.75;;
72125;SDS011;59999;51.676;22.650;2023-09-07T11:28:16;7.20;;;3.97;;
72125;SDS011;59999;51.676;22.650;2023-09-07T11:30:50;6.20;;;3.60;;
72125;SDS011;59999;51.676;22.650;2023-09-07T11:33:17;6.63;;;3.67;;
72125;SDS011;59999;51.676;22.650;2023-09-07T11:35:43;6.85;;;3.50;;
72125;SDS011;59999;51.676;22.650;2023-09-07T11:38:12;6.93;;;3.60;;
72125;SDS011;59999;51.676;22.650;2023-09-07T11:40:39;6.75;;;3.63;;
72125;SDS011;59999;51.676;22.650;2023-09-07T11:43:08;7.10;;;3.75;;
72125;SDS011;59999;51.676;22.650;2023-09-07T11:45:34;7.87;;;3.60;;
72125;SDS011;59999;51.676;22.650;2023-09-07T11:48:00;6.70;;;3.42;;
72125;SDS011;59999;51.676;22.650;2023-09-07T11:50:26;6.85;;;3.42;;
72125;SDS011;59999;51.676;22.650;2023-09-07T11:52:55;7.80;;;3.30;;
72125;SDS011;59999;51.676;22.650;2023-09-07T11:55:21;7.72;;;3.58;;
72125;SDS011;59999;51.676;22.650;2023-09-07T11:57:48;6.28;;;3.30;;
72125;SDS011;59999;51.676;22.650;2023-09-07T12:00:13;5.87;;;3.53;;
72125;SDS011;59999;51.676;22.650;2023-09-07T12:02:40;5.93;;;3.00;;
72125;SDS011;59999;51.676;22.650;2023-09-07T12:05:06;6.63;;;3.50;;
72125;SDS011;59999;51.676;22.650;2023-09-07T12:07:40;7.70;;;3.20;;
72125;SDS011;59999;51.676;22.650;2023-09-07T12:10:06;8.63;;;3.33;;
72125;SDS011;59999;51.676;22.650;2023-09-07T12:12:39;8.02;;;3.53;;
72125;SDS011;59999;51.676;22.650;2023-09-07T12:15:06;6.53;;;3.27;;
72125;SDS011;59999;51.676;22.650;2023-09-07T12:17:32;9.05;;;4.10;;
72125;SDS011;59999;51.676;22.650;2023-09-07T12:19:59;11.27;;;3.35;;
72125;SDS011;59999;51.676;22.650;2023-09-07T12:22:26;6.53;;;3.50;;
72125;SDS011;59999;51.676;22.650;2023-09-07T12:24:52;5.85;;;3.17;;
72125;SDS011;59999;51.676;22.650;2023-09-07T12:27:19;6.90;;;3.43;;
72125;SDS011;59999;51.676;22.650;2023-09-07T12:29:45;5.72;;;3.25;;
72125;SDS011;59999;51.676;22.650;2023-09-07T12:32:11;14.85;;;3.70;;
72125;SDS011;59999;51.676;22.650;2023-09-07T12:34:37;6.60;;;3.23;;
72125;SDS011;59999;51.676;22.650;2023-09-07T12:37:04;6.00;;;3.67;;
72125;SDS011;59999;51.676;22.650;2023-09-07T12:39:32;6.05;;;3.55;;
72125;SDS011;59999;51.676;22.650;2023-09-07T12:41:58;5.97;;;3.50;;
72125;SDS011;59999;51.676;22.650;2023-09-07T12:44:24;6.65;;;3.40;;
72125;SDS011;59999;51.676;22.650;2023-09-07T12:46:50;9.23;;;3.70;;
72125;SDS011;59999;51.676;22.650;2023-09-07T12:49:16;8.63;;;3.50;;
72125;SDS011;59999;51.676;22.650;2023-09-07T12:51:42;12.98;;;3.38;;
72125;SDS011;59999;51.676;22.650;2023-09-07T12:54:08;6.65;;;3.50;;
72125;SDS011;59999;51.676;22.650;2023-09-07T12:56:34;6.40;;;3.50;;
72125;SDS011;59999;51.676;22.650;2023-09-07T12:58:59;6.53;;;3.50;;
72125;SDS011;59999;51.676;22.650;2023-09-07T13:01:26;7.50;;;3.92;;
72125;SDS011;59999;51.676;22.650;2023-09-07T13:03:52;7.88;;;3.50;;
72125;SDS011;59999;51.676;22.650;2023-09-07T13:06:18;8.23;;;3.37;;
72125;SDS011;59999;51.676;22.650;2023-09-07T13:08:44;8.20;;;3.50;;
72125;SDS011;59999;51.676;22.650;2023-09-07T13:11:11;7.45;;;3.45;;
72125;SDS011;59999;51.676;22.650;2023-09-07T13:13:37;10.10;;;3.25;;
72125;SDS011;59999;51.676;22.650;2023-09-07T13:16:04;6.07;;;3.28;;
72125;SDS011;59999;51.676;22.650;2023-09-07T13:18:30;6.50;;;3.10;;
72125;SDS011;59999;51.676;22.650;2023-09-07T13:20:59;6.32;;;3.30;;
72125;SDS011;59999;51.676;22.650;2023-09-07T13:23:26;6.40;;;3.25;;
72125;SDS011;59999;51.676;22.650;2023-09-07T13:25:54;6.93;;;2.97;;
72125;SDS011;59999;51.676;22.650;2023-09-07T13:28:20;6.93;;;3.17;;
72125;SDS011;59999;51.676;22.650;2023-09-07T13:30:46;6.10;;;3.43;;
72125;SDS011;59999;51.676;22.650;2023-09-07T13:33:12;6.05;;;3.42;;
72125;SDS011;59999;51.676;22.650;2023-09-07T13:35:38;5.75;;;3.15;;
72125;SDS011;59999;51.676;22.650;2023-09-07T13:38:05;7.72;;;3.38;;
72125;SDS011;59999;51.676;22.650;2023-09-07T13:40:31;6.73;;;2.97;;
72125;SDS011;59999;51.676;22.650;2023-09-07T13:42:57;6.93;;;3.40;;
72125;SDS011;59999;51.676;22.650;2023-09-07T13:45:23;5.85;;;3.20;;
72125;SDS011;59999;51.676;22.650;2023-09-07T13:47:49;6.40;;;3.67;;
72125;SDS011;59999;51.676;22.650;2023-09-07T13:50:15;8.82;;;3.70;;
72125;SDS011;59999;51.676;22.650;2023-09-07T13:52:41;7.25;;;3.13;;
72125;SDS011;59999;51.676;22.650;2023-09-07T13:55:07;6.07;;;3.25;;
72125;SDS011;59999;51.676;22.650;2023-09-07T13:57:34;6.00;;;2.97;;
72125;SDS011;59999;51.676;22.650;2023-09-07T14:00:00;8.00;;;3.72;;
72125;SDS011;59999;51.676;22.650;2023-09-07T14:02:26;8.32;;;3.60;;
72125;SDS011;59999;51.676;22.650;2023-09-07T14:04:52;5.78;;;3.20;;
72125;SDS011;59999;51.676;22.650;2023-09-07T14:07:18;5.83;;;3.10;;
72125;SDS011;59999;51.676;22.650;2023-09-07T14:09:44;5.77;;;3.20;;
72125;SDS011;59999;51.676;22.650;2023-09-07T14:12:10;5.65;;;3.25;;
72125;SDS011;59999;51.676;22.650;2023-09-07T14:14:37;6.97;;;3.40;;
72125;SDS011;59999;51.676;22.650;2023-09-07T14:17:03;7.83;;;2.97;;
72125;SDS011;59999;51.676;22.650;2023-09-07T14:19:29;5.22;;;2.60;;
72125;SDS011;59999;51.676;22.650;2023-09-07T14:21:57;6.07;;;3.15;;